sensor_id;sensor_type;location;lat;lon;timestamp;temperature;humidity
19174;DHT22;9719;49.322;8.536;2022-08-03T00:03:49;22.10;56.50
19174;DHT22;9719;49.322;8.536;2022-08-03T00:08:54;21.70;56.70
19174;DHT22;9719;49.322;8.536;2022-08-03T00:13:57;21.60;56.90
19174;DHT22;9719;49.322;8.536;2022-08-03T00:18:59;21.50;57.30
19174;DHT22;9719;49.322;8.536;2022-08-03T00:24:03;21.30;57.70
19174;DHT22;9719;49.322;8.536;2022-08-03T00:29:06;21.10;58.10
19174;DHT22;9719;49.322;8.536;2022-08-03T00:34:09;21.00;57.90
19174;DHT22;9719;49.322;8.536;2022-08-03T00:39:13;21.10;58.40
19174;DHT22;9719;49.322;8.536;2022-08-03T00:44:18;20.90;58.60
19174;DHT22;9719;49.322;8.536;2022-08-03T00:49:20;20.90;58.70
19174;DHT22;9719;49.322;8.536;2022-08-03T00:54:24;20.80;58.80
19174;DHT22;9719;49.322;8.536;2022-08-03T00:59:26;20.80;59.40
19174;DHT22;9719;49.322;8.536;2022-08-03T01:04:31;20.80;59.20
19174;DHT22;9719;49.322;8.536;2022-08-03T01:09:43;21.00;59.90
19174;DHT22;9719;49.322;8.536;2022-08-03T01:14:52;20.70;60.00
19174;DHT22;9719;49.322;8.536;2022-08-03T01:20:00;20.60;60.40
19174;DHT22;9719;49.322;8.536;2022-08-03T01:25:12;20.60;60.60
19174;DHT22;9719;49.322;8.536;2022-08-03T01:30:18;20.60;60.60
19174;DHT22;9719;49.322;8.536;2022-08-03T01:35:24;20.50;60.70
19174;DHT22;9719;49.322;8.536;2022-08-03T01:40:27;20.50;60.90
19174;DHT22;9719;49.322;8.536;2022-08-03T01:45:32;20.50;61.10
19174;DHT22;9719;49.322;8.536;2022-08-03T01:50:34;20.50;61.10
19174;DHT22;9719;49.322;8.536;2022-08-03T01:55:38;20.40;61.20
19174;DHT22;9719;49.322;8.536;2022-08-03T02:00:42;20.40;61.10
19174;DHT22;9719;49.322;8.536;2022-08-03T02:05:46;20.40;61.40
19174;DHT22;9719;49.322;8.536;2022-08-03T02:10:49;20.30;61.60
19174;DHT22;9719;49.322;8.536;2022-08-03T02:15:54;20.30;61.70
19174;DHT22;9719;49.322;8.536;2022-08-03T02:20:58;20.20;61.80
19174;DHT22;9719;49.322;8.536;2022-08-03T02:26:02;20.20;61.70
19174;DHT22;9719;49.322;8.536;2022-08-03T02:31:11;20.20;62.10
19174;DHT22;9719;49.322;8.536;2022-08-03T02:36:15;20.20;62.00
19174;DHT22;9719;49.322;8.536;2022-08-03T02:41:23;20.10;62.20
19174;DHT22;9719;49.322;8.536;2022-08-03T02:46:30;20.10;62.30
19174;DHT22;9719;49.322;8.536;2022-08-03T02:51:34;20.00;62.40
19174;DHT22;9719;49.322;8.536;2022-08-03T02:56:37;20.00;62.60
19174;DHT22;9719;49.322;8.536;2022-08-03T03:01:41;20.00;62.70
19174;DHT22;9719;49.322;8.536;2022-08-03T03:06:44;20.00;62.80
19174;DHT22;9719;49.322;8.536;2022-08-03T03:11:48;20.00;62.90
19174;DHT22;9719;49.322;8.536;2022-08-03T03:16:54;19.90;62.90
19174;DHT22;9719;49.322;8.536;2022-08-03T03:21:57;19.80;63.00
19174;DHT22;9719;49.322;8.536;2022-08-03T03:27:01;19.80;63.30
19174;DHT22;9719;49.322;8.536;2022-08-03T03:32:05;19.80;63.30
19174;DHT22;9719;49.322;8.536;2022-08-03T03:37:07;19.70;63.70
19174;DHT22;9719;49.322;8.536;2022-08-03T03:42:09;19.70;63.70
19174;DHT22;9719;49.322;8.536;2022-08-03T03:47:13;19.70;63.90
19174;DHT22;9719;49.322;8.536;2022-08-03T03:52:15;19.60;63.80
19174;DHT22;9719;49.322;8.536;2022-08-03T03:57:17;19.70;63.90
19174;DHT22;9719;49.322;8.536;2022-08-03T04:02:20;19.60;63.70
19174;DHT22;9719;49.322;8.536;2022-08-03T04:07:23;19.60;64.00
19174;DHT22;9719;49.322;8.536;2022-08-03T04:12:44;19.70;64.10
19174;DHT22;9719;49.322;8.536;2022-08-03T04:17:49;19.60;63.90
19174;DHT22;9719;49.322;8.536;2022-08-03T04:22:54;19.50;64.00
19174;DHT22;9719;49.322;8.536;2022-08-03T04:27:59;19.40;64.00
19174;DHT22;9719;49.322;8.536;2022-08-03T04:33:06;19.30;64.50
19174;DHT22;9719;49.322;8.536;2022-08-03T04:38:12;19.30;64.70
19174;DHT22;9719;49.322;8.536;2022-08-03T04:43:16;19.30;64.90
19174;DHT22;9719;49.322;8.536;2022-08-03T04:48:20;19.30;65.10
19174;DHT22;9719;49.322;8.536;2022-08-03T04:53:23;19.30;65.30
19174;DHT22;9719;49.322;8.536;2022-08-03T04:58:25;19.40;65.40
19174;DHT22;9719;49.322;8.536;2022-08-03T05:03:28;19.40;65.80
19174;DHT22;9719;49.322;8.536;2022-08-03T05:08:34;19.50;66.00
19174;DHT22;9719;49.322;8.536;2022-08-03T05:13:43;19.70;66.20
19174;DHT22;9719;49.322;8.536;2022-08-03T05:18:59;19.80;65.90
19174;DHT22;9719;49.322;8.536;2022-08-03T05:24:01;19.20;65.40
19174;DHT22;9719;49.322;8.536;2022-08-03T05:29:04;20.10;65.80
19174;DHT22;9719;49.322;8.536;2022-08-03T05:34:07;20.30;65.60
19174;DHT22;9719;49.322;8.536;2022-08-03T05:39:09;20.50;65.60
19174;DHT22;9719;49.322;8.536;2022-08-03T05:44:11;20.70;65.30
19174;DHT22;9719;49.322;8.536;2022-08-03T05:49:14;20.90;65.10
19174;DHT22;9719;49.322;8.536;2022-08-03T05:54:17;21.10;64.90
19174;DHT22;9719;49.322;8.536;2022-08-03T05:59:19;21.30;64.40
19174;DHT22;9719;49.322;8.536;2022-08-03T06:04:22;21.60;63.90
19174;DHT22;9719;49.322;8.536;2022-08-03T06:09:24;21.80;63.50
19174;DHT22;9719;49.322;8.536;2022-08-03T06:14:26;22.10;63.50
19174;DHT22;9719;49.322;8.536;2022-08-03T06:19:32;22.30;63.10
19174;DHT22;9719;49.322;8.536;2022-08-03T06:24:34;22.60;62.10
19174;DHT22;9719;49.322;8.536;2022-08-03T06:29:36;22.80;61.30
19174;DHT22;9719;49.322;8.536;2022-08-03T06:34:40;23.00;60.90
19174;DHT22;9719;49.322;8.536;2022-08-03T06:39:42;23.30;60.40
19174;DHT22;9719;49.322;8.536;2022-08-03T06:44:43;23.50;59.70
19174;DHT22;9719;49.322;8.536;2022-08-03T06:49:47;23.70;59.30
19174;DHT22;9719;49.322;8.536;2022-08-03T06:54:49;23.90;58.50
19174;DHT22;9719;49.322;8.536;2022-08-03T06:59:51;24.10;58.40
19174;DHT22;9719;49.322;8.536;2022-08-03T07:04:55;24.30;57.60
19174;DHT22;9719;49.322;8.536;2022-08-03T07:10:00;24.50;57.40
19174;DHT22;9719;49.322;8.536;2022-08-03T07:15:03;24.80;57.00
19174;DHT22;9719;49.322;8.536;2022-08-03T07:20:10;24.60;59.50
19174;DHT22;9719;49.322;8.536;2022-08-03T07:25:18;23.80;60.50
19174;DHT22;9719;49.322;8.536;2022-08-03T07:30:26;23.60;61.60
19174;DHT22;9719;49.322;8.536;2022-08-03T07:35:32;23.60;60.90
19174;DHT22;9719;49.322;8.536;2022-08-03T07:40:33;24.10;59.90
19174;DHT22;9719;49.322;8.536;2022-08-03T07:45:35;24.50;58.50
19174;DHT22;9719;49.322;8.536;2022-08-03T07:50:39;25.10;57.20
19174;DHT22;9719;49.322;8.536;2022-08-03T07:55:41;25.60;56.10
19174;DHT22;9719;49.322;8.536;2022-08-03T08:00:43;25.90;54.60
19174;DHT22;9719;49.322;8.536;2022-08-03T08:05:47;26.20;53.70
19174;DHT22;9719;49.322;8.536;2022-08-03T08:10:48;26.60;53.00
19174;DHT22;9719;49.322;8.536;2022-08-03T08:15:50;26.90;51.70
19174;DHT22;9719;49.322;8.536;2022-08-03T08:20:54;27.30;50.80
19174;DHT22;9719;49.322;8.536;2022-08-03T08:25:56;27.80;49.80
19174;DHT22;9719;49.322;8.536;2022-08-03T08:30:58;28.10;49.30
19174;DHT22;9719;49.322;8.536;2022-08-03T08:36:02;28.40;48.50
19174;DHT22;9719;49.322;8.536;2022-08-03T08:41:04;28.70;47.60
19174;DHT22;9719;49.322;8.536;2022-08-03T08:46:06;29.00;47.50
19174;DHT22;9719;49.322;8.536;2022-08-03T08:51:11;29.30;45.70
19174;DHT22;9719;49.322;8.536;2022-08-03T08:56:13;29.10;45.50
19174;DHT22;9719;49.322;8.536;2022-08-03T09:01:17;29.80;44.10
19174;DHT22;9719;49.322;8.536;2022-08-03T09:06:21;30.00;44.60
19174;DHT22;9719;49.322;8.536;2022-08-03T09:11:23;30.30;43.40
19174;DHT22;9719;49.322;8.536;2022-08-03T09:16:25;30.60;42.60
19174;DHT22;9719;49.322;8.536;2022-08-03T09:21:28;30.90;41.60
19174;DHT22;9719;49.322;8.536;2022-08-03T09:26:31;31.20;41.20
19174;DHT22;9719;49.322;8.536;2022-08-03T09:31:35;31.40;40.20
19174;DHT22;9719;49.322;8.536;2022-08-03T09:36:40;31.70;39.60
19174;DHT22;9719;49.322;8.536;2022-08-03T09:41:44;32.20;40.10
19174;DHT22;9719;49.322;8.536;2022-08-03T09:46:48;32.90;37.50
19174;DHT22;9719;49.322;8.536;2022-08-03T09:51:52;35.00;35.20
19174;DHT22;9719;49.322;8.536;2022-08-03T09:56:55;37.00;32.00
19174;DHT22;9719;49.322;8.536;2022-08-03T10:01:58;38.50;29.40
19174;DHT22;9719;49.322;8.536;2022-08-03T10:07:04;39.50;27.70
19174;DHT22;9719;49.322;8.536;2022-08-03T10:12:07;40.60;25.90
19174;DHT22;9719;49.322;8.536;2022-08-03T10:17:10;41.70;24.20
19174;DHT22;9719;49.322;8.536;2022-08-03T10:22:17;41.80;22.50
19174;DHT22;9719;49.322;8.536;2022-08-03T10:27:22;41.40;22.60
19174;DHT22;9719;49.322;8.536;2022-08-03T10:32:29;41.60;22.80
19174;DHT22;9719;49.322;8.536;2022-08-03T10:37:40;41.30;22.00
19174;DHT22;9719;49.322;8.536;2022-08-03T10:42:43;40.70;22.00
19174;DHT22;9719;49.322;8.536;2022-08-03T10:47:46;40.20;22.00
19174;DHT22;9719;49.322;8.536;2022-08-03T10:52:57;39.70;22.30
19174;DHT22;9719;49.322;8.536;2022-08-03T10:58:01;39.30;22.80
19174;DHT22;9719;49.322;8.536;2022-08-03T11:03:08;39.20;22.90
19174;DHT22;9719;49.322;8.536;2022-08-03T11:08:25;38.90;23.00
19174;DHT22;9719;49.322;8.536;2022-08-03T11:13:29;38.70;23.50
19174;DHT22;9719;49.322;8.536;2022-08-03T11:18:33;38.40;23.80
19174;DHT22;9719;49.322;8.536;2022-08-03T11:23:47;38.20;23.70
19174;DHT22;9719;49.322;8.536;2022-08-03T11:28:49;38.10;24.50
19174;DHT22;9719;49.322;8.536;2022-08-03T11:34:02;38.00;24.10
19174;DHT22;9719;49.322;8.536;2022-08-03T11:39:15;37.60;23.90
19174;DHT22;9719;49.322;8.536;2022-08-03T11:44:38;37.40;24.00
19174;DHT22;9719;49.322;8.536;2022-08-03T11:49:40;37.30;24.60
19174;DHT22;9719;49.322;8.536;2022-08-03T11:54:45;37.20;24.90
19174;DHT22;9719;49.322;8.536;2022-08-03T11:59:47;37.20;25.00
19174;DHT22;9719;49.322;8.536;2022-08-03T12:04:50;37.20;24.60
19174;DHT22;9719;49.322;8.536;2022-08-03T12:10:07;37.10;24.50
19174;DHT22;9719;49.322;8.536;2022-08-03T12:15:13;37.10;25.20
19174;DHT22;9719;49.322;8.536;2022-08-03T12:20:20;37.10;25.50
19174;DHT22;9719;49.322;8.536;2022-08-03T12:25:25;37.30;25.80
19174;DHT22;9719;49.322;8.536;2022-08-03T12:30:28;37.50;25.10
19174;DHT22;9719;49.322;8.536;2022-08-03T12:35:30;37.60;25.00
19174;DHT22;9719;49.322;8.536;2022-08-03T12:40:34;37.70;24.90
19174;DHT22;9719;49.322;8.536;2022-08-03T12:45:36;37.70;24.00
19174;DHT22;9719;49.322;8.536;2022-08-03T12:50:38;37.70;24.30
19174;DHT22;9719;49.322;8.536;2022-08-03T12:55:42;37.80;23.60
19174;DHT22;9719;49.322;8.536;2022-08-03T13:00:54;37.60;24.10
19174;DHT22;9719;49.322;8.536;2022-08-03T13:05:56;37.70;23.30
19174;DHT22;9719;49.322;8.536;2022-08-03T13:11:17;37.70;23.50
19174;DHT22;9719;49.322;8.536;2022-08-03T13:16:19;37.80;23.60
19174;DHT22;9719;49.322;8.536;2022-08-03T13:21:21;37.90;23.80
19174;DHT22;9719;49.322;8.536;2022-08-03T13:26:25;38.00;23.60
19174;DHT22;9719;49.322;8.536;2022-08-03T13:31:27;37.80;22.70
19174;DHT22;9719;49.322;8.536;2022-08-03T13:36:29;37.70;22.80
19174;DHT22;9719;49.322;8.536;2022-08-03T13:41:32;37.80;23.20
19174;DHT22;9719;49.322;8.536;2022-08-03T13:46:34;37.80;23.00
19174;DHT22;9719;49.322;8.536;2022-08-03T13:51:36;37.80;23.10
19174;DHT22;9719;49.322;8.536;2022-08-03T13:56:39;37.80;23.00
19174;DHT22;9719;49.322;8.536;2022-08-03T14:01:41;37.70;22.80
19174;DHT22;9719;49.322;8.536;2022-08-03T14:06:43;37.70;23.50
19174;DHT22;9719;49.322;8.536;2022-08-03T14:11:47;37.70;23.40
19174;DHT22;9719;49.322;8.536;2022-08-03T14:16:49;37.70;23.50
19174;DHT22;9719;49.322;8.536;2022-08-03T14:21:51;37.70;23.20
19174;DHT22;9719;49.322;8.536;2022-08-03T14:26:54;37.60;23.20
19174;DHT22;9719;49.322;8.536;2022-08-03T14:31:56;37.60;23.60
19174;DHT22;9719;49.322;8.536;2022-08-03T14:36:58;37.50;23.50
19174;DHT22;9719;49.322;8.536;2022-08-03T14:42:01;37.40;23.30
19174;DHT22;9719;49.322;8.536;2022-08-03T14:47:03;37.40;23.40
19174;DHT22;9719;49.322;8.536;2022-08-03T14:52:05;37.20;23.50
19174;DHT22;9719;49.322;8.536;2022-08-03T14:57:08;37.20;23.50
19174;DHT22;9719;49.322;8.536;2022-08-03T15:02:10;37.00;23.80
19174;DHT22;9719;49.322;8.536;2022-08-03T15:07:12;37.10;23.80
19174;DHT22;9719;49.322;8.536;2022-08-03T15:12:15;37.10;23.50
19174;DHT22;9719;49.322;8.536;2022-08-03T15:17:17;37.20;23.90
19174;DHT22;9719;49.322;8.536;2022-08-03T15:22:19;37.10;24.00
19174;DHT22;9719;49.322;8.536;2022-08-03T15:27:22;37.00;23.90
19174;DHT22;9719;49.322;8.536;2022-08-03T15:32:24;36.90;23.30
19174;DHT22;9719;49.322;8.536;2022-08-03T15:37:26;36.80;23.80
19174;DHT22;9719;49.322;8.536;2022-08-03T15:42:31;36.70;23.50
19174;DHT22;9719;49.322;8.536;2022-08-03T15:47:33;36.70;23.70
19174;DHT22;9719;49.322;8.536;2022-08-03T15:52:35;36.60;24.00
19174;DHT22;9719;49.322;8.536;2022-08-03T15:57:39;36.50;23.90
19174;DHT22;9719;49.322;8.536;2022-08-03T16:02:41;36.60;23.90
19174;DHT22;9719;49.322;8.536;2022-08-03T16:07:43;36.50;23.80
19174;DHT22;9719;49.322;8.536;2022-08-03T16:12:48;36.50;24.00
19174;DHT22;9719;49.322;8.536;2022-08-03T16:17:50;36.30;25.30
19174;DHT22;9719;49.322;8.536;2022-08-03T16:22:52;36.30;25.10
19174;DHT22;9719;49.322;8.536;2022-08-03T16:27:55;36.20;24.80
19174;DHT22;9719;49.322;8.536;2022-08-03T16:32:57;36.20;25.20
19174;DHT22;9719;49.322;8.536;2022-08-03T16:37:59;36.10;24.90
19174;DHT22;9719;49.322;8.536;2022-08-03T16:43:09;36.10;26.10
19174;DHT22;9719;49.322;8.536;2022-08-03T16:48:12;36.00;26.30
19174;DHT22;9719;49.322;8.536;2022-08-03T16:53:15;35.90;26.90
19174;DHT22;9719;49.322;8.536;2022-08-03T16:58:18;35.80;27.70
19174;DHT22;9719;49.322;8.536;2022-08-03T17:03:21;35.50;26.70
19174;DHT22;9719;49.322;8.536;2022-08-03T17:08:23;35.50;28.20
19174;DHT22;9719;49.322;8.536;2022-08-03T17:13:26;35.30;27.60
19174;DHT22;9719;49.322;8.536;2022-08-03T17:18:29;35.20;28.10
19174;DHT22;9719;49.322;8.536;2022-08-03T17:23:42;35.20;28.70
19174;DHT22;9719;49.322;8.536;2022-08-03T17:28:49;35.00;28.50
19174;DHT22;9719;49.322;8.536;2022-08-03T17:33:51;35.00;29.20
19174;DHT22;9719;49.322;8.536;2022-08-03T17:38:53;34.90;29.20
19174;DHT22;9719;49.322;8.536;2022-08-03T17:43:57;34.80;29.70
19174;DHT22;9719;49.322;8.536;2022-08-03T17:49:02;34.70;29.50
19174;DHT22;9719;49.322;8.536;2022-08-03T17:54:11;34.50;30.10
19174;DHT22;9719;49.322;8.536;2022-08-03T17:59:20;34.40;30.50
19174;DHT22;9719;49.322;8.536;2022-08-03T18:04:27;34.30;30.20
19174;DHT22;9719;49.322;8.536;2022-08-03T18:09:31;34.20;30.80
19174;DHT22;9719;49.322;8.536;2022-08-03T18:14:42;34.10;31.00
19174;DHT22;9719;49.322;8.536;2022-08-03T18:19:45;34.00;31.10
19174;DHT22;9719;49.322;8.536;2022-08-03T18:24:48;33.80;31.70
19174;DHT22;9719;49.322;8.536;2022-08-03T18:29:52;33.70;32.10
19174;DHT22;9719;49.322;8.536;2022-08-03T18:34:55;33.60;33.80
19174;DHT22;9719;49.322;8.536;2022-08-03T18:39:57;33.30;34.20
19174;DHT22;9719;49.322;8.536;2022-08-03T18:45:01;33.10;34.50
19174;DHT22;9719;49.322;8.536;2022-08-03T18:50:08;32.80;36.00
19174;DHT22;9719;49.322;8.536;2022-08-03T18:55:17;32.60;37.30
19174;DHT22;9719;49.322;8.536;2022-08-03T19:00:23;32.40;35.90
19174;DHT22;9719;49.322;8.536;2022-08-03T19:05:27;32.20;36.20
19174;DHT22;9719;49.322;8.536;2022-08-03T19:10:32;31.90;37.00
19174;DHT22;9719;49.322;8.536;2022-08-03T19:15:37;31.70;36.90
19174;DHT22;9719;49.322;8.536;2022-08-03T19:20:39;31.70;36.90
19174;DHT22;9719;49.322;8.536;2022-08-03T19:25:41;31.30;36.80
19174;DHT22;9719;49.322;8.536;2022-08-03T19:30:47;31.10;37.50
19174;DHT22;9719;49.322;8.536;2022-08-03T19:35:49;31.00;37.50
19174;DHT22;9719;49.322;8.536;2022-08-03T19:40:54;30.80;38.00
19174;DHT22;9719;49.322;8.536;2022-08-03T19:45:59;30.70;40.10
19174;DHT22;9719;49.322;8.536;2022-08-03T19:51:05;30.40;40.20
19174;DHT22;9719;49.322;8.536;2022-08-03T19:56:09;30.10;41.20
19174;DHT22;9719;49.322;8.536;2022-08-03T20:01:13;29.80;40.80
19174;DHT22;9719;49.322;8.536;2022-08-03T20:06:16;29.60;41.20
19174;DHT22;9719;49.322;8.536;2022-08-03T20:11:19;29.40;42.60
19174;DHT22;9719;49.322;8.536;2022-08-03T20:16:22;29.10;43.20
19174;DHT22;9719;49.322;8.536;2022-08-03T20:21:26;29.00;43.50
19174;DHT22;9719;49.322;8.536;2022-08-03T20:26:29;28.80;43.40
19174;DHT22;9719;49.322;8.536;2022-08-03T20:31:34;28.60;43.80
19174;DHT22;9719;49.322;8.536;2022-08-03T20:36:36;28.40;44.00
19174;DHT22;9719;49.322;8.536;2022-08-03T20:41:39;28.20;44.40
19174;DHT22;9719;49.322;8.536;2022-08-03T20:46:43;28.00;44.80
19174;DHT22;9719;49.322;8.536;2022-08-03T20:51:44;27.90;44.40
19174;DHT22;9719;49.322;8.536;2022-08-03T20:56:47;27.70;44.60
19174;DHT22;9719;49.322;8.536;2022-08-03T21:01:51;27.60;45.30
19174;DHT22;9719;49.322;8.536;2022-08-03T21:06:57;27.40;46.00
19174;DHT22;9719;49.322;8.536;2022-08-03T21:12:01;27.30;46.20
19174;DHT22;9719;49.322;8.536;2022-08-03T21:17:06;27.10;47.30
19174;DHT22;9719;49.322;8.536;2022-08-03T21:22:12;27.00;47.40
19174;DHT22;9719;49.322;8.536;2022-08-03T21:27:14;26.90;47.30
19174;DHT22;9719;49.322;8.536;2022-08-03T21:32:18;26.80;48.20
19174;DHT22;9719;49.322;8.536;2022-08-03T21:37:21;26.80;48.60
19174;DHT22;9719;49.322;8.536;2022-08-03T21:42:23;26.80;48.70
19174;DHT22;9719;49.322;8.536;2022-08-03T21:47:27;26.70;48.90
19174;DHT22;9719;49.322;8.536;2022-08-03T21:52:32;26.60;49.40
19174;DHT22;9719;49.322;8.536;2022-08-03T21:57:34;26.60;49.80
19174;DHT22;9719;49.322;8.536;2022-08-03T22:02:41;26.40;49.70
19174;DHT22;9719;49.322;8.536;2022-08-03T22:07:45;26.40;49.70
19174;DHT22;9719;49.322;8.536;2022-08-03T22:12:47;26.20;50.40
19174;DHT22;9719;49.322;8.536;2022-08-03T22:17:51;26.10;50.70
19174;DHT22;9719;49.322;8.536;2022-08-03T22:22:54;26.00;50.90
19174;DHT22;9719;49.322;8.536;2022-08-03T22:27:59;25.90;50.90
19174;DHT22;9719;49.322;8.536;2022-08-03T22:33:04;25.80;51.10
19174;DHT22;9719;49.322;8.536;2022-08-03T22:38:09;25.70;51.80
19174;DHT22;9719;49.322;8.536;2022-08-03T22:43:11;25.50;52.40
19174;DHT22;9719;49.322;8.536;2022-08-03T22:48:15;25.40;52.60
19174;DHT22;9719;49.322;8.536;2022-08-03T22:53:19;25.70;52.80
19174;DHT22;9719;49.322;8.536;2022-08-03T22:58:21;25.30;53.20
19174;DHT22;9719;49.322;8.536;2022-08-03T23:03:30;25.30;53.20
19174;DHT22;9719;49.322;8.536;2022-08-03T23:08:33;25.10;53.80
19174;DHT22;9719;49.322;8.536;2022-08-03T23:13:37;24.90;54.20
19174;DHT22;9719;49.322;8.536;2022-08-03T23:18:42;24.80;53.90
19174;DHT22;9719;49.322;8.536;2022-08-03T23:23:46;24.80;53.90
19174;DHT22;9719;49.322;8.536;2022-08-03T23:28:48;24.90;54.30
19174;DHT22;9719;49.322;8.536;2022-08-03T23:33:53;25.00;54.00
19174;DHT22;9719;49.322;8.536;2022-08-03T23:39:11;25.20;54.00
19174;DHT22;9719;49.322;8.536;2022-08-03T23:44:13;25.10;54.00
19174;DHT22;9719;49.322;8.536;2022-08-03T23:49:18;25.20;54.30
19174;DHT22;9719;49.322;8.536;2022-08-03T23:54:29;25.30;54.70
19174;DHT22;9719;49.322;8.536;2022-08-03T23:59:43;25.30;54.60
